Volcan De Tauce — EAGW — position and weather

sailwx.info

Track history (hours):
 
Tides and Currents Weather Stations Pressure Air Temp Water Temp Dewpoint Dewpoint Depression Visibility Wind Speed Wind Dir Waves Ship Positions

Volcan De Tauce

Last reported at 2018-Feb-23 13:04 UTC. Time now 2018-Feb-23 14:06 UTC.
Position N 28°07' W 014°08'.

Length 120 m; draft 4.4 m.

Type: Passenger vessel. MMSI: 224761000.

Date/timePositionNaut miles runAvg speedWind from/ knotsBaromVisibWave heightAir tempDewpointWater temp
2018-Feb-23 13:04N 28°07' W 014°08'116.2
2018-Feb-23 13:00N 28°07' W 014°07'38 3.5
2018-Feb-23 02:08N 28°04' W 014°50'215.4
2018-Feb-23 01:59N 28°05' W 014°52'815.7
2018-Feb-23 01:30N 28°06' W 015°01'815.7
2018-Feb-23 01:00N 28°07' W 015°09'816.1
2018-Feb-23 00:30N 28°08' W 015°18'510.5
2018-Feb-23 00:00N 28°10' W 015°24'0 0.0
2018-Feb-22 23:30N 28°10' W 015°24'0 0.0
2018-Feb-22 23:00N 28°10' W 015°24'0 0.0
2018-Feb-22 22:31N 28°10' W 015°24'0 0.0
2018-Feb-22 22:00N 28°10' W 015°24'0 0.0
2018-Feb-22 21:30N 28°10' W 015°24'0 0.0
2018-Feb-22 21:00N 28°10' W 015°24'0 0.0
2018-Feb-22 20:31N 28°10' W 015°24'0 0.0
2018-Feb-22 19:59N 28°10' W 015°24'0 0.0
2018-Feb-22 19:30N 28°10' W 015°24'0 0.0
2018-Feb-22 19:01N 28°10' W 015°24'0 0.0
2018-Feb-22 18:31N 28°10' W 015°24'0 0.0
2018-Feb-22 18:01N 28°10' W 015°24'0 0.0
2018-Feb-22 17:30N 28°10' W 015°24'4 7.6
2018-Feb-22 17:00N 28°08' W 015°20'815.8
2018-Feb-22 16:30N 28°07' W 015°11'816.2
2018-Feb-22 16:00N 28°06' W 015°02'816.2
2018-Feb-22 15:30N 28°04' W 014°53'816.3
2018-Feb-22 15:00N 28°03' W 014°44'816.1
2018-Feb-22 14:30N 28°02' W 014°35'2515.8
2018-Feb-22 12:57N 28°07' W 014°08'3 0.4
2018-Feb-22 04:35N 28°08' W 014°04'3714.9
2018-Feb-22 02:05N 28°03' W 014°46'215.9
2018-Feb-22 01:58N 28°03' W 014°48'715.6
2018-Feb-22 01:31N 28°05' W 014°56'815.4
2018-Feb-22 01:00N 28°06' W 015°05'815.5
2018-Feb-22 00:31N 28°08' W 015°13'815.9
2018-Feb-22 00:01N 28°09' W 015°22'2 3.7
2018-Feb-21 23:30N 28°10' W 015°24'0 0.0
2018-Feb-21 23:00N 28°10' W 015°24'0 0.0
2018-Feb-21 22:30N 28°10' W 015°24'0 0.0
2018-Feb-21 22:00N 28°10' W 015°24'0 0.0
2018-Feb-21 21:30N 28°10' W 015°24'0 0.0
2018-Feb-21 21:00N 28°10' W 015°24'0 0.0
2018-Feb-21 20:29N 28°10' W 015°24'0 0.0
2018-Feb-21 20:00N 28°10' W 015°24'0 0.0
2018-Feb-21 19:30N 28°10' W 015°24'0 0.0
2018-Feb-21 19:00N 28°10' W 015°24'0 0.0
2018-Feb-21 18:30N 28°10' W 015°24'0 0.0
2018-Feb-21 18:00N 28°10' W 015°24'0 0.1
2018-Feb-21 17:30N 28°10' W 015°24'510.7
2018-Feb-21 17:00N 28°08' W 015°18'815.7
2018-Feb-21 16:30N 28°08' W 015°09'816.0
2018-Feb-21 16:00N 28°07' W 015°00'816.0
2018-Feb-21 15:30N 28°06' W 014°51'815.6
2018-Feb-21 15:00N 28°04' W 014°43'815.5
2018-Feb-21 14:30N 28°02' W 014°34'2415.7
2018-Feb-21 12:57N 28°07' W 014°07'33 3.0
2018-Feb-21 02:04N 28°03' W 014°44'215.6
2018-Feb-21 01:57N 28°03' W 014°46'715.5
2018-Feb-21 01:30N 28°04' W 014°54'815.5
2018-Feb-21 01:00N 28°06' W 015°02'815.4
2018-Feb-21 00:30N 28°07' W 015°11'815.6
2018-Feb-21 00:00N 28°08' W 015°20'4 8.1
2018-Feb-20 23:30N 28°10' W 015°24'0 0.0
2018-Feb-20 23:00N 28°10' W 015°24'0 0.0
2018-Feb-20 22:30N 28°10' W 015°24'0 0.0
2018-Feb-20 22:00N 28°10' W 015°24'0 0.0
2018-Feb-20 21:30N 28°10' W 015°24'0 0.0
2018-Feb-20 21:00N 28°10' W 015°24'0 0.0
2018-Feb-20 20:30N 28°10' W 015°24'0 0.0
2018-Feb-20 20:00N 28°10' W 015°24'0 0.0
2018-Feb-20 19:30N 28°10' W 015°24'0 0.0
2018-Feb-20 19:00N 28°10' W 015°24'0 0.0
2018-Feb-20 18:30N 28°10' W 015°24'0 0.0
2018-Feb-20 18:00N 28°10' W 015°24'0 0.4
2018-Feb-20 17:30N 28°09' W 015°24'713.3
2018-Feb-20 17:00N 28°08' W 015°17'815.8
2018-Feb-20 16:30N 28°07' W 015°08'815.8
2018-Feb-20 16:00N 28°07' W 014°59'815.8
2018-Feb-20 15:30N 28°05' W 014°50'815.7
2018-Feb-20 15:00N 28°04' W 014°41'815.9
2018-Feb-20 14:29N 28°02' W 014°32'2015.9
2018-Feb-20 13:13N 28°06' W 014°10'316.7
2018-Feb-20 13:01N 28°07' W 014°06'35 3.2
2018-Feb-20 02:10N 28°02' W 014°45'315.7
2018-Feb-20 02:00N 28°02' W 014°48'815.5
2018-Feb-20 01:31N 28°04' W 014°57'815.4
2018-Feb-20 01:00N 28°05' W 015°05'815.5
2018-Feb-20 00:30N 28°07' W 015°14'815.8
2018-Feb-20 00:00N 28°09' W 015°23'1 2.8
2018-Feb-19 23:30N 28°10' W 015°24'0 0.0
2018-Feb-19 22:58N 28°10' W 015°24'0 0.0
2018-Feb-19 22:30N 28°10' W 015°24'0 0.0
2018-Feb-19 22:00N 28°10' W 015°24'0 0.0
2018-Feb-19 21:30N 28°10' W 015°24'0 0.0
2018-Feb-19 21:01N 28°10' W 015°24'0 0.0
2018-Feb-19 20:29N 28°10' W 015°24'0 0.0
2018-Feb-19 20:00N 28°10' W 015°24'0 0.0
2018-Feb-19 19:30N 28°10' W 015°24'0 0.0
2018-Feb-19 19:00N 28°10' W 015°24'0 0.0
2018-Feb-19 18:30N 28°10' W 015°24'0 0.0
2018-Feb-19 17:58N 28°10' W 015°24'0 0.0
2018-Feb-19 17:30N 28°10' W 015°24'0 0.0
2018-Feb-19 17:00N 28°10' W 015°24'0 0.0
2018-Feb-19 16:29N 28°10' W 015°24'0 0.0
2018-Feb-19 16:00N 28°10' W 015°24'0 0.0
2018-Feb-19 15:30N 28°10' W 015°24'0 0.0
2018-Feb-19 15:00N 28°10' W 015°24'0 0.0
2018-Feb-19 14:30N 28°10' W 015°24'0 0.0
2018-Feb-19 14:00N 28°10' W 015°24'0 0.0
2018-Feb-19 13:30N 28°10' W 015°24'0 0.0
2018-Feb-19 13:00N 28°10' W 015°24'0 0.0
2018-Feb-19 12:30N 28°10' W 015°24'0 0.0
2018-Feb-19 12:00N 28°10' W 015°24'0 0.0
2018-Feb-19 11:30N 28°10' W 015°24'0 0.0
2018-Feb-19 11:00N 28°10' W 015°24'0 0.0
2018-Feb-19 10:30N 28°10' W 015°24'0 0.0
2018-Feb-19 10:00N 28°10' W 015°24'0 0.0
2018-Feb-19 09:30N 28°10' W 015°24'0 0.0
2018-Feb-19 09:01N 28°10' W 015°24'0 0.0
2018-Feb-19 08:30N 28°10' W 015°24'0 0.0
2018-Feb-19 08:00N 28°10' W 015°24'0 0.0
2018-Feb-19 07:29N 28°10' W 015°24'0 0.0
2018-Feb-19 07:01N 28°10' W 015°24'0 0.0
2018-Feb-19 06:30N 28°10' W 015°24'0 0.0
2018-Feb-19 06:00N 28°10' W 015°24'0 0.0
2018-Feb-19 05:30N 28°10' W 015°24'0 0.0
2018-Feb-19 05:01N 28°10' W 015°24'0 0.0
2018-Feb-19 04:30N 28°10' W 015°24'0 0.0
2018-Feb-19 03:59N 28°10' W 015°24'0 0.0
2018-Feb-19 03:30N 28°10' W 015°24'0 0.0
2018-Feb-19 03:00N 28°10' W 015°24'0 0.0
2018-Feb-19 02:30N 28°10' W 015°24'0 0.0
2018-Feb-19 01:58N 28°10' W 015°24'0 0.0
2018-Feb-19 01:30N 28°10' W 015°24'0 0.0
2018-Feb-19 00:58N 28°10' W 015°24'0 0.0
2018-Feb-19 00:30N 28°10' W 015°24'0 0.0
2018-Feb-19 00:00N 28°10' W 015°24'0 0.0
2018-Feb-18 23:30N 28°10' W 015°24'0 0.0
2018-Feb-18 23:00N 28°10' W 015°24'0 0.0
2018-Feb-18 22:30N 28°10' W 015°24'0 0.0
2018-Feb-18 22:00N 28°10' W 015°24'0 0.0
2018-Feb-18 21:30N 28°10' W 015°24'0 0.0
2018-Feb-18 21:00N 28°10' W 015°24'0 0.0
2018-Feb-18 20:31N 28°10' W 015°24'0 0.0
2018-Feb-18 20:00N 28°10' W 015°24'0 0.0
2018-Feb-18 19:30N 28°10' W 015°24'0 0.0
2018-Feb-18 19:00N 28°10' W 015°24'0 0.0
2018-Feb-18 18:30N 28°10' W 015°24'0 0.0
2018-Feb-18 17:59N 28°10' W 015°24'0 0.0
2018-Feb-18 17:30N 28°10' W 015°24'0 0.0
2018-Feb-18 17:00N 28°10' W 015°24'0 0.0
2018-Feb-18 16:30N 28°10' W 015°24'0 0.0
2018-Feb-18 16:00N 28°10' W 015°24'0 0.0
2018-Feb-18 15:29N 28°10' W 015°24'0 0.0
2018-Feb-18 15:00N 28°10' W 015°24'0 0.0
2018-Feb-18 14:29N 28°10' W 015°24'0 0.0
2018-Feb-18 14:00N 28°10' W 015°24'0 0.0
2018-Feb-18 13:30N 28°10' W 015°24'0 0.0
2018-Feb-18 13:00N 28°10' W 015°24'0 0.0
2018-Feb-18 12:30N 28°10' W 015°24'0 0.0
2018-Feb-18 12:00N 28°10' W 015°24'0 0.0
2018-Feb-18 11:30N 28°10' W 015°24'0 0.0
2018-Feb-18 11:00N 28°10' W 015°24'0 0.0
2018-Feb-18 10:30N 28°10' W 015°24'0 0.0
2018-Feb-18 10:00N 28°10' W 015°24'0 0.0
2018-Feb-18 09:30N 28°10' W 015°24'0 0.0
2018-Feb-18 09:00N 28°10' W 015°24'0 0.0
2018-Feb-18 08:30N 28°10' W 015°24'0 0.0
2018-Feb-18 08:00N 28°10' W 015°24'0 0.0
2018-Feb-18 07:30N 28°10' W 015°24'0 0.0
2018-Feb-18 07:00N 28°10' W 015°24'0 0.0
2018-Feb-18 06:30N 28°10' W 015°24'0 0.0
2018-Feb-18 06:00N 28°10' W 015°24'0 0.0
2018-Feb-18 05:30N 28°10' W 015°24'0 0.0
2018-Feb-18 05:00N 28°10' W 015°24'0 0.0
2018-Feb-18 04:30N 28°10' W 015°24'0 0.0
2018-Feb-18 04:01N 28°10' W 015°24'0 0.0
2018-Feb-18 03:30N 28°10' W 015°24'0 0.0
2018-Feb-18 03:00N 28°10' W 015°24'0 0.0
2018-Feb-18 02:30N 28°10' W 015°24'0 0.0
2018-Feb-18 02:01N 28°10' W 015°24'0 0.0
2018-Feb-18 01:30N 28°10' W 015°24'0 0.0
2018-Feb-18 01:00N 28°10' W 015°24'0 0.0
2018-Feb-18 00:30N 28°10' W 015°24'0 0.0
2018-Feb-18 00:00N 28°10' W 015°24'0 0.0
2018-Feb-17 23:30N 28°10' W 015°24'0 0.0
2018-Feb-17 23:00N 28°10' W 015°24'0 0.0
2018-Feb-17 22:30N 28°10' W 015°24'0 0.0
2018-Feb-17 22:00N 28°10' W 015°24'0 0.0
2018-Feb-17 21:30N 28°10' W 015°24'0 0.0
2018-Feb-17 21:00N 28°10' W 015°24'0 0.0
2018-Feb-17 20:30N 28°10' W 015°24'0 0.0
2018-Feb-17 20:00N 28°10' W 015°24'0 0.0
2018-Feb-17 19:30N 28°10' W 015°24'0 0.0
2018-Feb-17 19:00N 28°10' W 015°24'0 0.0
2018-Feb-17 18:30N 28°10' W 015°24'0 0.0
2018-Feb-17 18:00N 28°10' W 015°24'0 0.4
2018-Feb-17 17:30N 28°09' W 015°24'612.2
2018-Feb-17 17:00N 28°08' W 015°17'815.7
2018-Feb-17 16:30N 28°07' W 015°09'815.8
2018-Feb-17 16:00N 28°05' W 014°60'815.9
2018-Feb-17 15:30N 28°04' W 014°51'815.9
2018-Feb-17 15:00N 28°03' W 014°42'815.9
2018-Feb-17 14:30N 28°01' W 014°33'2415.8
2018-Feb-17 12:58N 28°07' W 014°06'24 3.5
2018-Feb-17 06:02N 28°26' W 013°49'115.4
2018-Feb-17 05:59N 28°25' W 013°49'915.6
2018-Feb-17 05:24N 28°17' W 013°53'614.5
2018-Feb-17 04:59N 28°12' W 013°57'1816.1
2018-Feb-17 03:52N 28°03' W 014°15'615.5
2018-Feb-17 03:30N 28°01' W 014°21'1015.6
2018-Feb-17 02:53N 28°01' W 014°31'615.7
2018-Feb-17 02:30N 28°02' W 014°38'815.9
2018-Feb-17 02:00N 28°04' W 014°47'815.6
2018-Feb-17 01:30N 28°05' W 014°56'816.0
2018-Feb-17 01:00N 28°06' W 015°05'815.8
2018-Feb-17 00:30N 28°08' W 015°14'815.7
2018-Feb-17 00:00N 28°09' W 015°22'2 3.7
2018-Feb-16 23:30N 28°10' W 015°24'0 0.0
2018-Feb-16 23:00N 28°10' W 015°24'0 0.0
2018-Feb-16 22:30N 28°10' W 015°24'0 0.0
2018-Feb-16 22:00N 28°10' W 015°24'0 0.0
2018-Feb-16 21:30N 28°10' W 015°24'0 0.0
2018-Feb-16 21:00N 28°10' W 015°24'0 0.0
2018-Feb-16 20:30N 28°10' W 015°24'0 0.0
2018-Feb-16 20:00N 28°10' W 015°24'0 0.0
2018-Feb-16 19:30N 28°10' W 015°24'0 0.0
2018-Feb-16 19:00N 28°10' W 015°24'0 0.0
2018-Feb-16 18:30N 28°10' W 015°24'0 0.0
2018-Feb-16 18:00N 28°10' W 015°24'0 1.0
2018-Feb-16 17:30N 28°09' W 015°24'714.9
2018-Feb-16 17:00N 28°08' W 015°16'815.8
2018-Feb-16 16:30N 28°07' W 015°07'815.7
2018-Feb-16 16:00N 28°05' W 014°58'816.0
2018-Feb-16 15:30N 28°04' W 014°49'816.3
2018-Feb-16 15:00N 28°02' W 014°40'816.1
2018-Feb-16 14:30N 28°01' W 014°31'816.8
2018-Feb-16 14:00N 28°01' W 014°22'1716.3
2018-Feb-16 12:56N 28°08' W 014°04'24 3.9
2018-Feb-16 06:39N 28°30' W 013°51'0 0.0
2018-Feb-16 06:18N 28°30' W 013°51'2 6.4
2018-Feb-16 06:00N 28°28' W 013°50'2313.9
2018-Feb-16 04:20N 28°09' W 014°04'1615.7
2018-Feb-16 03:19N 28°01' W 014°20'1315.2
2018-Feb-16 02:29N 28°02' W 014°34'716.0
2018-Feb-16 02:01N 28°03' W 014°43'815.7
2018-Feb-16 01:31N 28°04' W 014°52'815.8
2018-Feb-16 01:01N 28°05' W 015°00'815.9
2018-Feb-16 00:30N 28°06' W 015°09'815.8
2018-Feb-16 00:00N 28°07' W 015°18'611.2
2018-Feb-15 23:30N 28°10' W 015°24'0 0.0
2018-Feb-15 23:00N 28°10' W 015°24'0 0.0
2018-Feb-15 22:31N 28°10' W 015°24'0 0.0
2018-Feb-15 22:00N 28°10' W 015°24'0 0.0
2018-Feb-15 21:31N 28°10' W 015°24'0 0.0
2018-Feb-15 20:56N 28°10' W 015°24'0 0.0
2018-Feb-15 20:30N 28°10' W 015°24'0 0.0
2018-Feb-15 20:00N 28°10' W 015°24'0 0.0
2018-Feb-15 19:30N 28°10' W 015°24'0 0.0
2018-Feb-15 19:00N 28°10' W 015°24'0 0.0
2018-Feb-15 18:30N 28°10' W 015°24'0 0.0
2018-Feb-15 18:00N 28°10' W 015°24'1 1.4
2018-Feb-15 17:30N 28°09' W 015°24'815.7
2018-Feb-15 17:00N 28°08' W 015°15'815.8
2018-Feb-15 16:30N 28°06' W 015°06'815.9
2018-Feb-15 16:00N 28°04' W 014°57'816.0
2018-Feb-15 15:30N 28°03' W 014°49'816.0
2018-Feb-15 15:00N 28°01' W 014°40'816.3
2018-Feb-15 14:30N 28°00' W 014°30'916.9
2018-Feb-15 13:59N 28°01' W 014°20'816.4
2018-Feb-15 13:29N 28°04' W 014°12'916.4
2018-Feb-15 12:55N 28°08' W 014°02'716.2
2018-Feb-15 12:28N 28°12' W 013°55'814.9
2018-Feb-15 11:56N 28°19' W 013°51'716.4
2018-Feb-15 11:31N 28°25' W 013°49'2 0.3
2018-Feb-15 06:05N 28°27' W 013°49'315.0
2018-Feb-15 05:53N 28°24' W 013°49'1314.6
2018-Feb-15 04:59N 28°13' W 013°57'715.0
2018-Feb-15 04:30N 28°09' W 014°04'815.6
2018-Feb-15 04:00N 28°05' W 014°11'815.5
2018-Feb-15 03:30N 28°01' W 014°19'714.7
2018-Feb-15 03:00N 27°59' W 014°27'815.7
2018-Feb-15 02:30N 28°01' W 014°36'815.9
2018-Feb-15 02:00N 28°02' W 014°45'815.4
2018-Feb-15 01:30N 28°04' W 014°53'715.2
2018-Feb-15 01:00N 28°05' W 015°02'815.5
2018-Feb-15 00:30N 28°07' W 015°10'815.6
2018-Feb-15 00:00N 28°08' W 015°19'5 9.6
2018-Feb-14 23:31N 28°10' W 015°24'0 0.0
2018-Feb-14 23:01N 28°10' W 015°24'0 0.0
2018-Feb-14 22:31N 28°10' W 015°24'0 0.0
2018-Feb-14 22:01N 28°10' W 015°24'0 0.0
2018-Feb-14 21:30N 28°10' W 015°24'0 0.0
2018-Feb-14 21:00N 28°10' W 015°24'0 0.0
2018-Feb-14 20:31N 28°10' W 015°24'0 0.0
2018-Feb-14 20:00N 28°10' W 015°24'0 0.0
2018-Feb-14 19:31N 28°10' W 015°24'0 0.0
2018-Feb-14 19:01N 28°10' W 015°24'0 0.0
2018-Feb-14 18:30N 28°10' W 015°24'0 0.0
2018-Feb-14 18:00N 28°10' W 015°24'0 0.2
2018-Feb-14 17:30N 28°10' W 015°24'611.7
2018-Feb-14 17:00N 28°08' W 015°18'816.1
2018-Feb-14 16:30N 28°07' W 015°09'816.3
2018-Feb-14 16:00N 28°06' W 014°59'816.1
2018-Feb-14 15:30N 28°04' W 014°51'816.1
2018-Feb-14 15:00N 28°03' W 014°42'815.9
2018-Feb-14 14:30N 28°02' W 014°33'816.9
2018-Feb-14 14:00N 28°01' W 014°23'816.0
2018-Feb-14 13:30N 28°03' W 014°14'1016.4
2018-Feb-14 12:53N 28°08' W 014°04'716.4
2018-Feb-14 12:29N 28°11' W 013°58'1910.2
2018-Feb-14 10:36N 28°30' W 013°51'0 0.0
2018-Feb-14 10:26N 28°30' W 013°51'0 0.0
2018-Feb-14 09:56N 28°30' W 013°51'0 0.0
2018-Feb-14 09:16N 28°30' W 013°51'0 0.0
2018-Feb-14 08:58N 28°30' W 013°51'0 0.0
2018-Feb-14 08:30N 28°30' W 013°51'3 1.1
2018-Feb-14 06:03N 28°28' W 013°50'116.1
2018-Feb-14 05:59N 28°27' W 013°49'715.4
2018-Feb-14 05:30N 28°19' W 013°51'1514.7
2018-Feb-14 04:27N 28°09' W 014°04'1316.3
2018-Feb-14 03:40N 28°02' W 014°17'2415.6
2018-Feb-14 02:08N 28°02' W 014°44'515.6
2018-Feb-14 01:48N 28°03' W 014°50'515.8
2018-Feb-14 01:30N 28°04' W 014°55'815.7
2018-Feb-14 01:00N 28°06' W 015°03'815.9
2018-Feb-14 00:30N 28°07' W 015°12'816.0
2018-Feb-14 00:00N 28°09' W 015°21'3 5.4
2018-Feb-13 23:30N 28°10' W 015°24'0 0.0
2018-Feb-13 22:59N 28°10' W 015°24'0 0.0
2018-Feb-13 22:30N 28°10' W 015°24'0 0.0
2018-Feb-13 22:00N 28°10' W 015°24'0 0.0
2018-Feb-13 21:30N 28°10' W 015°24'0 0.0
2018-Feb-13 21:00N 28°10' W 015°24'0 0.0
2018-Feb-13 20:30N 28°10' W 015°24'0 0.0
2018-Feb-13 20:00N 28°10' W 015°24'0 0.0
2018-Feb-13 19:30N 28°10' W 015°24'0 0.0
2018-Feb-13 19:00N 28°10' W 015°24'0 0.0
2018-Feb-13 18:30N 28°10' W 015°24'0 0.0
2018-Feb-13 18:00N 28°10' W 015°24'0 0.3
2018-Feb-13 17:31N 28°09' W 015°24'612.7
2018-Feb-13 17:00N 28°08' W 015°17'816.2
2018-Feb-13 16:30N 28°06' W 015°08'816.4
2018-Feb-13 16:00N 28°05' W 014°59'816.1
2018-Feb-13 15:30N 28°03' W 014°50'816.3
2018-Feb-13 15:00N 28°02' W 014°41'816.2
2018-Feb-13 14:30N 28°01' W 014°32'816.8
2018-Feb-13 14:00N 28°01' W 014°22'1015.7
2018-Feb-13 13:21N 28°04' W 014°11'  
Track history (hours):
 
Tides and Currents Weather Stations Pressure Air Temp Water Temp Dewpoint Dewpoint Depression Visibility Wind Speed Wind Dir Waves Ship Positions

Volcan De Tauce

Last reported at 2018-Feb-23 13:04 UTC. Time now 2018-Feb-23 14:06 UTC.
Position N 28°07' W 014°08'.

Length 120 m; draft 4.4 m.

Type: Passenger vessel. MMSI: 224761000.

Date/timePositionNaut miles runAvg speedWind from/ knotsBaromVisibWave heightAir tempDewpointWater temp
2018-Feb-23 13:04N 28°07' W 014°08'116.2
2018-Feb-23 13:00N 28°07' W 014°07'38 3.5
2018-Feb-23 02:08N 28°04' W 014°50'215.4
2018-Feb-23 01:59N 28°05' W 014°52'815.7
2018-Feb-23 01:30N 28°06' W 015°01'815.7
2018-Feb-23 01:00N 28°07' W 015°09'816.1
2018-Feb-23 00:30N 28°08' W 015°18'510.5
2018-Feb-23 00:00N 28°10' W 015°24'0 0.0
2018-Feb-22 23:30N 28°10' W 015°24'0 0.0
2018-Feb-22 23:00N 28°10' W 015°24'0 0.0
2018-Feb-22 22:31N 28°10' W 015°24'0 0.0
2018-Feb-22 22:00N 28°10' W 015°24'0 0.0
2018-Feb-22 21:30N 28°10' W 015°24'0 0.0
2018-Feb-22 21:00N 28°10' W 015°24'0 0.0
2018-Feb-22 20:31N 28°10' W 015°24'0 0.0
2018-Feb-22 19:59N 28°10' W 015°24'0 0.0
2018-Feb-22 19:30N 28°10' W 015°24'0 0.0
2018-Feb-22 19:01N 28°10' W 015°24'0 0.0
2018-Feb-22 18:31N 28°10' W 015°24'0 0.0
2018-Feb-22 18:01N 28°10' W 015°24'0 0.0
2018-Feb-22 17:30N 28°10' W 015°24'4 7.6
2018-Feb-22 17:00N 28°08' W 015°20'815.8
2018-Feb-22 16:30N 28°07' W 015°11'816.2
2018-Feb-22 16:00N 28°06' W 015°02'816.2
2018-Feb-22 15:30N 28°04' W 014°53'816.3
2018-Feb-22 15:00N 28°03' W 014°44'816.1
2018-Feb-22 14:30N 28°02' W 014°35'2515.8
2018-Feb-22 12:57N 28°07' W 014°08'3 0.4
2018-Feb-22 04:35N 28°08' W 014°04'3714.9
2018-Feb-22 02:05N 28°03' W 014°46'215.9
2018-Feb-22 01:58N 28°03' W 014°48'715.6
2018-Feb-22 01:31N 28°05' W 014°56'815.4
2018-Feb-22 01:00N 28°06' W 015°05'815.5
2018-Feb-22 00:31N 28°08' W 015°13'815.9
2018-Feb-22 00:01N 28°09' W 015°22'2 3.7
2018-Feb-21 23:30N 28°10' W 015°24'0 0.0
2018-Feb-21 23:00N 28°10' W 015°24'0 0.0
2018-Feb-21 22:30N 28°10' W 015°24'0 0.0
2018-Feb-21 22:00N 28°10' W 015°24'0 0.0
2018-Feb-21 21:30N 28°10' W 015°24'0 0.0
2018-Feb-21 21:00N 28°10' W 015°24'0 0.0
2018-Feb-21 20:29N 28°10' W 015°24'0 0.0
2018-Feb-21 20:00N 28°10' W 015°24'0 0.0
2018-Feb-21 19:30N 28°10' W 015°24'0 0.0
2018-Feb-21 19:00N 28°10' W 015°24'0 0.0
2018-Feb-21 18:30N 28°10' W 015°24'0 0.0
2018-Feb-21 18:00N 28°10' W 015°24'0 0.1
2018-Feb-21 17:30N 28°10' W 015°24'510.7
2018-Feb-21 17:00N 28°08' W 015°18'815.7
2018-Feb-21 16:30N 28°08' W 015°09'816.0
2018-Feb-21 16:00N 28°07' W 015°00'816.0
2018-Feb-21 15:30N 28°06' W 014°51'815.6
2018-Feb-21 15:00N 28°04' W 014°43'815.5
2018-Feb-21 14:30N 28°02' W 014°34'2415.7
2018-Feb-21 12:57N 28°07' W 014°07'33 3.0
2018-Feb-21 02:04N 28°03' W 014°44'215.6
2018-Feb-21 01:57N 28°03' W 014°46'715.5
2018-Feb-21 01:30N 28°04' W 014°54'815.5
2018-Feb-21 01:00N 28°06' W 015°02'815.4
2018-Feb-21 00:30N 28°07' W 015°11'815.6
2018-Feb-21 00:00N 28°08' W 015°20'4 8.1
2018-Feb-20 23:30N 28°10' W 015°24'0 0.0
2018-Feb-20 23:00N 28°10' W 015°24'0 0.0
2018-Feb-20 22:30N 28°10' W 015°24'0 0.0
2018-Feb-20 22:00N 28°10' W 015°24'0 0.0
2018-Feb-20 21:30N 28°10' W 015°24'0 0.0
2018-Feb-20 21:00N 28°10' W 015°24'0 0.0
2018-Feb-20 20:30N 28°10' W 015°24'0 0.0
2018-Feb-20 20:00N 28°10' W 015°24'0 0.0
2018-Feb-20 19:30N 28°10' W 015°24'0 0.0
2018-Feb-20 19:00N 28°10' W 015°24'0 0.0
2018-Feb-20 18:30N 28°10' W 015°24'0 0.0
2018-Feb-20 18:00N 28°10' W 015°24'0 0.4
2018-Feb-20 17:30N 28°09' W 015°24'713.3
2018-Feb-20 17:00N 28°08' W 015°17'815.8
2018-Feb-20 16:30N 28°07' W 015°08'815.8
2018-Feb-20 16:00N 28°07' W 014°59'815.8
2018-Feb-20 15:30N 28°05' W 014°50'815.7
2018-Feb-20 15:00N 28°04' W 014°41'815.9
2018-Feb-20 14:29N 28°02' W 014°32'2015.9
2018-Feb-20 13:13N 28°06' W 014°10'316.7
2018-Feb-20 13:01N 28°07' W 014°06'35 3.2
2018-Feb-20 02:10N 28°02' W 014°45'315.7
2018-Feb-20 02:00N 28°02' W 014°48'815.5
2018-Feb-20 01:31N 28°04' W 014°57'815.4
2018-Feb-20 01:00N 28°05' W 015°05'815.5
2018-Feb-20 00:30N 28°07' W 015°14'815.8
2018-Feb-20 00:00N 28°09' W 015°23'1 2.8
2018-Feb-19 23:30N 28°10' W 015°24'0 0.0
2018-Feb-19 22:58N 28°10' W 015°24'0 0.0
2018-Feb-19 22:30N 28°10' W 015°24'0 0.0
2018-Feb-19 22:00N 28°10' W 015°24'0 0.0
2018-Feb-19 21:30N 28°10' W 015°24'0 0.0
2018-Feb-19 21:01N 28°10' W 015°24'0 0.0
2018-Feb-19 20:29N 28°10' W 015°24'0 0.0
2018-Feb-19 20:00N 28°10' W 015°24'0 0.0
2018-Feb-19 19:30N 28°10' W 015°24'0 0.0
2018-Feb-19 19:00N 28°10' W 015°24'0 0.0
2018-Feb-19 18:30N 28°10' W 015°24'0 0.0
2018-Feb-19 17:58N 28°10' W 015°24'0 0.0
2018-Feb-19 17:30N 28°10' W 015°24'0 0.0
2018-Feb-19 17:00N 28°10' W 015°24'0 0.0
2018-Feb-19 16:29N 28°10' W 015°24'0 0.0
2018-Feb-19 16:00N 28°10' W 015°24'0 0.0
2018-Feb-19 15:30N 28°10' W 015°24'0 0.0
2018-Feb-19 15:00N 28°10' W 015°24'0 0.0
2018-Feb-19 14:30N 28°10' W 015°24'0 0.0
2018-Feb-19 14:00N 28°10' W 015°24'0 0.0
2018-Feb-19 13:30N 28°10' W 015°24'0 0.0
2018-Feb-19 13:00N 28°10' W 015°24'0 0.0
2018-Feb-19 12:30N 28°10' W 015°24'0 0.0
2018-Feb-19 12:00N 28°10' W 015°24'0 0.0
2018-Feb-19 11:30N 28°10' W 015°24'0 0.0
2018-Feb-19 11:00N 28°10' W 015°24'0 0.0
2018-Feb-19 10:30N 28°10' W 015°24'0 0.0
2018-Feb-19 10:00N 28°10' W 015°24'0 0.0
2018-Feb-19 09:30N 28°10' W 015°24'0 0.0
2018-Feb-19 09:01N 28°10' W 015°24'0 0.0
2018-Feb-19 08:30N 28°10' W 015°24'0 0.0
2018-Feb-19 08:00N 28°10' W 015°24'0 0.0
2018-Feb-19 07:29N 28°10' W 015°24'0 0.0
2018-Feb-19 07:01N 28°10' W 015°24'0 0.0
2018-Feb-19 06:30N 28°10' W 015°24'0 0.0
2018-Feb-19 06:00N 28°10' W 015°24'0 0.0
2018-Feb-19 05:30N 28°10' W 015°24'0 0.0
2018-Feb-19 05:01N 28°10' W 015°24'0 0.0
2018-Feb-19 04:30N 28°10' W 015°24'0 0.0
2018-Feb-19 03:59N 28°10' W 015°24'0 0.0
2018-Feb-19 03:30N 28°10' W 015°24'0 0.0
2018-Feb-19 03:00N 28°10' W 015°24'0 0.0
2018-Feb-19 02:30N 28°10' W 015°24'0 0.0
2018-Feb-19 01:58N 28°10' W 015°24'0 0.0
2018-Feb-19 01:30N 28°10' W 015°24'0 0.0
2018-Feb-19 00:58N 28°10' W 015°24'0 0.0
2018-Feb-19 00:30N 28°10' W 015°24'0 0.0
2018-Feb-19 00:00N 28°10' W 015°24'0 0.0
2018-Feb-18 23:30N 28°10' W 015°24'0 0.0
2018-Feb-18 23:00N 28°10' W 015°24'0 0.0
2018-Feb-18 22:30N 28°10' W 015°24'0 0.0
2018-Feb-18 22:00N 28°10' W 015°24'0 0.0
2018-Feb-18 21:30N 28°10' W 015°24'0 0.0
2018-Feb-18 21:00N 28°10' W 015°24'0 0.0
2018-Feb-18 20:31N 28°10' W 015°24'0 0.0
2018-Feb-18 20:00N 28°10' W 015°24'0 0.0
2018-Feb-18 19:30N 28°10' W 015°24'0 0.0
2018-Feb-18 19:00N 28°10' W 015°24'0 0.0
2018-Feb-18 18:30N 28°10' W 015°24'0 0.0
2018-Feb-18 17:59N 28°10' W 015°24'0 0.0
2018-Feb-18 17:30N 28°10' W 015°24'0 0.0
2018-Feb-18 17:00N 28°10' W 015°24'0 0.0
2018-Feb-18 16:30N 28°10' W 015°24'0 0.0
2018-Feb-18 16:00N 28°10' W 015°24'0 0.0
2018-Feb-18 15:29N 28°10' W 015°24'0 0.0
2018-Feb-18 15:00N 28°10' W 015°24'0 0.0
2018-Feb-18 14:29N 28°10' W 015°24'0 0.0
2018-Feb-18 14:00N 28°10' W 015°24'0 0.0
2018-Feb-18 13:30N 28°10' W 015°24'0 0.0
2018-Feb-18 13:00N 28°10' W 015°24'0 0.0
2018-Feb-18 12:30N 28°10' W 015°24'0 0.0
2018-Feb-18 12:00N 28°10' W 015°24'0 0.0
2018-Feb-18 11:30N 28°10' W 015°24'0 0.0
2018-Feb-18 11:00N 28°10' W 015°24'0 0.0
2018-Feb-18 10:30N 28°10' W 015°24'0 0.0
2018-Feb-18 10:00N 28°10' W 015°24'0 0.0
2018-Feb-18 09:30N 28°10' W 015°24'0 0.0
2018-Feb-18 09:00N 28°10' W 015°24'0 0.0
2018-Feb-18 08:30N 28°10' W 015°24'0 0.0
2018-Feb-18 08:00N 28°10' W 015°24'0 0.0
2018-Feb-18 07:30N 28°10' W 015°24'0 0.0
2018-Feb-18 07:00N 28°10' W 015°24'0 0.0
2018-Feb-18 06:30N 28°10' W 015°24'0 0.0
2018-Feb-18 06:00N 28°10' W 015°24'0 0.0
2018-Feb-18 05:30N 28°10' W 015°24'0 0.0
2018-Feb-18 05:00N 28°10' W 015°24'0 0.0
2018-Feb-18 04:30N 28°10' W 015°24'0 0.0
2018-Feb-18 04:01N 28°10' W 015°24'0 0.0
2018-Feb-18 03:30N 28°10' W 015°24'0 0.0
2018-Feb-18 03:00N 28°10' W 015°24'0 0.0
2018-Feb-18 02:30N 28°10' W 015°24'0 0.0
2018-Feb-18 02:01N 28°10' W 015°24'0 0.0
2018-Feb-18 01:30N 28°10' W 015°24'0 0.0
2018-Feb-18 01:00N 28°10' W 015°24'0 0.0
2018-Feb-18 00:30N 28°10' W 015°24'0 0.0
2018-Feb-18 00:00N 28°10' W 015°24'0 0.0
2018-Feb-17 23:30N 28°10' W 015°24'0 0.0
2018-Feb-17 23:00N 28°10' W 015°24'0 0.0
2018-Feb-17 22:30N 28°10' W 015°24'0 0.0
2018-Feb-17 22:00N 28°10' W 015°24'0 0.0
2018-Feb-17 21:30N 28°10' W 015°24'0 0.0
2018-Feb-17 21:00N 28°10' W 015°24'0 0.0
2018-Feb-17 20:30N 28°10' W 015°24'0 0.0
2018-Feb-17 20:00N 28°10' W 015°24'0 0.0
2018-Feb-17 19:30N 28°10' W 015°24'0 0.0
2018-Feb-17 19:00N 28°10' W 015°24'0 0.0
2018-Feb-17 18:30N 28°10' W 015°24'0 0.0
2018-Feb-17 18:00N 28°10' W 015°24'0 0.4
2018-Feb-17 17:30N 28°09' W 015°24'612.2
2018-Feb-17 17:00N 28°08' W 015°17'815.7
2018-Feb-17 16:30N 28°07' W 015°09'815.8
2018-Feb-17 16:00N 28°05' W 014°60'815.9
2018-Feb-17 15:30N 28°04' W 014°51'815.9
2018-Feb-17 15:00N 28°03' W 014°42'815.9
2018-Feb-17 14:30N 28°01' W 014°33'2415.8
2018-Feb-17 12:58N 28°07' W 014°06'24 3.5
2018-Feb-17 06:02N 28°26' W 013°49'115.4
2018-Feb-17 05:59N 28°25' W 013°49'915.6
2018-Feb-17 05:24N 28°17' W 013°53'614.5
2018-Feb-17 04:59N 28°12' W 013°57'1816.1
2018-Feb-17 03:52N 28°03' W 014°15'615.5
2018-Feb-17 03:30N 28°01' W 014°21'1015.6
2018-Feb-17 02:53N 28°01' W 014°31'615.7
2018-Feb-17 02:30N 28°02' W 014°38'815.9
2018-Feb-17 02:00N 28°04' W 014°47'815.6
2018-Feb-17 01:30N 28°05' W 014°56'816.0
2018-Feb-17 01:00N 28°06' W 015°05'815.8
2018-Feb-17 00:30N 28°08' W 015°14'815.7
2018-Feb-17 00:00N 28°09' W 015°22'2 3.7
2018-Feb-16 23:30N 28°10' W 015°24'0 0.0
2018-Feb-16 23:00N 28°10' W 015°24'0 0.0
2018-Feb-16 22:30N 28°10' W 015°24'0 0.0
2018-Feb-16 22:00N 28°10' W 015°24'0 0.0
2018-Feb-16 21:30N 28°10' W 015°24'0 0.0
2018-Feb-16 21:00N 28°10' W 015°24'0 0.0
2018-Feb-16 20:30N 28°10' W 015°24'0 0.0
2018-Feb-16 20:00N 28°10' W 015°24'0 0.0
2018-Feb-16 19:30N 28°10' W 015°24'0 0.0
2018-Feb-16 19:00N 28°10' W 015°24'0 0.0
2018-Feb-16 18:30N 28°10' W 015°24'0 0.0
2018-Feb-16 18:00N 28°10' W 015°24'0 1.0
2018-Feb-16 17:30N 28°09' W 015°24'714.9
2018-Feb-16 17:00N 28°08' W 015°16'815.8
2018-Feb-16 16:30N 28°07' W 015°07'815.7
2018-Feb-16 16:00N 28°05' W 014°58'816.0
2018-Feb-16 15:30N 28°04' W 014°49'816.3
2018-Feb-16 15:00N 28°02' W 014°40'816.1
2018-Feb-16 14:30N 28°01' W 014°31'816.8
2018-Feb-16 14:00N 28°01' W 014°22'1716.3
2018-Feb-16 12:56N 28°08' W 014°04'24 3.9
2018-Feb-16 06:39N 28°30' W 013°51'0 0.0
2018-Feb-16 06:18N 28°30' W 013°51'2 6.4
2018-Feb-16 06:00N 28°28' W 013°50'2313.9
2018-Feb-16 04:20N 28°09' W 014°04'1615.7
2018-Feb-16 03:19N 28°01' W 014°20'1315.2
2018-Feb-16 02:29N 28°02' W 014°34'716.0
2018-Feb-16 02:01N 28°03' W 014°43'815.7
2018-Feb-16 01:31N 28°04' W 014°52'815.8
2018-Feb-16 01:01N 28°05' W 015°00'815.9
2018-Feb-16 00:30N 28°06' W 015°09'815.8
2018-Feb-16 00:00N 28°07' W 015°18'611.2
2018-Feb-15 23:30N 28°10' W 015°24'0 0.0
2018-Feb-15 23:00N 28°10' W 015°24'0 0.0
2018-Feb-15 22:31N 28°10' W 015°24'0 0.0
2018-Feb-15 22:00N 28°10' W 015°24'0 0.0
2018-Feb-15 21:31N 28°10' W 015°24'0 0.0
2018-Feb-15 20:56N 28°10' W 015°24'0 0.0
2018-Feb-15 20:30N 28°10' W 015°24'0 0.0
2018-Feb-15 20:00N 28°10' W 015°24'0 0.0
2018-Feb-15 19:30N 28°10' W 015°24'0 0.0
2018-Feb-15 19:00N 28°10' W 015°24'0 0.0
2018-Feb-15 18:30N 28°10' W 015°24'0 0.0
2018-Feb-15 18:00N 28°10' W 015°24'1 1.4
2018-Feb-15 17:30N 28°09' W 015°24'815.7
2018-Feb-15 17:00N 28°08' W 015°15'815.8
2018-Feb-15 16:30N 28°06' W 015°06'815.9
2018-Feb-15 16:00N 28°04' W 014°57'816.0
2018-Feb-15 15:30N 28°03' W 014°49'816.0
2018-Feb-15 15:00N 28°01' W 014°40'816.3
2018-Feb-15 14:30N 28°00' W 014°30'916.9
2018-Feb-15 13:59N 28°01' W 014°20'816.4
2018-Feb-15 13:29N 28°04' W 014°12'916.4
2018-Feb-15 12:55N 28°08' W 014°02'716.2
2018-Feb-15 12:28N 28°12' W 013°55'814.9
2018-Feb-15 11:56N 28°19' W 013°51'716.4
2018-Feb-15 11:31N 28°25' W 013°49'2 0.3
2018-Feb-15 06:05N 28°27' W 013°49'315.0
2018-Feb-15 05:53N 28°24' W 013°49'1314.6
2018-Feb-15 04:59N 28°13' W 013°57'715.0
2018-Feb-15 04:30N 28°09' W 014°04'815.6
2018-Feb-15 04:00N 28°05' W 014°11'815.5
2018-Feb-15 03:30N 28°01' W 014°19'714.7
2018-Feb-15 03:00N 27°59' W 014°27'815.7
2018-Feb-15 02:30N 28°01' W 014°36'815.9
2018-Feb-15 02:00N 28°02' W 014°45'815.4
2018-Feb-15 01:30N 28°04' W 014°53'715.2
2018-Feb-15 01:00N 28°05' W 015°02'815.5
2018-Feb-15 00:30N 28°07' W 015°10'815.6
2018-Feb-15 00:00N 28°08' W 015°19'5 9.6
2018-Feb-14 23:31N 28°10' W 015°24'0 0.0
2018-Feb-14 23:01N 28°10' W 015°24'0 0.0
2018-Feb-14 22:31N 28°10' W 015°24'0 0.0
2018-Feb-14 22:01N 28°10' W 015°24'0 0.0
2018-Feb-14 21:30N 28°10' W 015°24'0 0.0
2018-Feb-14 21:00N 28°10' W 015°24'0 0.0
2018-Feb-14 20:31N 28°10' W 015°24'0 0.0
2018-Feb-14 20:00N 28°10' W 015°24'0 0.0
2018-Feb-14 19:31N 28°10' W 015°24'0 0.0
2018-Feb-14 19:01N 28°10' W 015°24'0 0.0
2018-Feb-14 18:30N 28°10' W 015°24'0 0.0
2018-Feb-14 18:00N 28°10' W 015°24'0 0.2
2018-Feb-14 17:30N 28°10' W 015°24'611.7
2018-Feb-14 17:00N 28°08' W 015°18'816.1
2018-Feb-14 16:30N 28°07' W 015°09'816.3
2018-Feb-14 16:00N 28°06' W 014°59'816.1
2018-Feb-14 15:30N 28°04' W 014°51'816.1
2018-Feb-14 15:00N 28°03' W 014°42'815.9
2018-Feb-14 14:30N 28°02' W 014°33'816.9
2018-Feb-14 14:00N 28°01' W 014°23'816.0
2018-Feb-14 13:30N 28°03' W 014°14'1016.4
2018-Feb-14 12:53N 28°08' W 014°04'716.4
2018-Feb-14 12:29N 28°11' W 013°58'1910.2
2018-Feb-14 10:36N 28°30' W 013°51'0 0.0
2018-Feb-14 10:26N 28°30' W 013°51'0 0.0
2018-Feb-14 09:56N 28°30' W 013°51'0 0.0
2018-Feb-14 09:16N 28°30' W 013°51'0 0.0
2018-Feb-14 08:58N 28°30' W 013°51'0 0.0
2018-Feb-14 08:30N 28°30' W 013°51'3 1.1
2018-Feb-14 06:03N 28°28' W 013°50'116.1
2018-Feb-14 05:59N 28°27' W 013°49'715.4
2018-Feb-14 05:30N 28°19' W 013°51'1514.7
2018-Feb-14 04:27N 28°09' W 014°04'1316.3
2018-Feb-14 03:40N 28°02' W 014°17'2415.6
2018-Feb-14 02:08N 28°02' W 014°44'515.6
2018-Feb-14 01:48N 28°03' W 014°50'515.8
2018-Feb-14 01:30N 28°04' W 014°55'815.7
2018-Feb-14 01:00N 28°06' W 015°03'815.9
2018-Feb-14 00:30N 28°07' W 015°12'816.0
2018-Feb-14 00:00N 28°09' W 015°21'3 5.4
2018-Feb-13 23:30N 28°10' W 015°24'0 0.0
2018-Feb-13 22:59N 28°10' W 015°24'0 0.0
2018-Feb-13 22:30N 28°10' W 015°24'0 0.0
2018-Feb-13 22:00N 28°10' W 015°24'0 0.0
2018-Feb-13 21:30N 28°10' W 015°24'0 0.0
2018-Feb-13 21:00N 28°10' W 015°24'0 0.0
2018-Feb-13 20:30N 28°10' W 015°24'0 0.0
2018-Feb-13 20:00N 28°10' W 015°24'0 0.0
2018-Feb-13 19:30N 28°10' W 015°24'0 0.0
2018-Feb-13 19:00N 28°10' W 015°24'0 0.0
2018-Feb-13 18:30N 28°10' W 015°24'0 0.0
2018-Feb-13 18:00N 28°10' W 015°24'0 0.3
2018-Feb-13 17:31N 28°09' W 015°24'612.7
2018-Feb-13 17:00N 28°08' W 015°17'816.2
2018-Feb-13 16:30N 28°06' W 015°08'816.4
2018-Feb-13 16:00N 28°05' W 014°59'816.1
2018-Feb-13 15:30N 28°03' W 014°50'816.3
2018-Feb-13 15:00N 28°02' W 014°41'816.2
2018-Feb-13 14:30N 28°01' W 014°32'816.8
2018-Feb-13 14:00N 28°01' W 014°22'1015.7
2018-Feb-13 13:21N 28°04' W 014°11'  

Dump ship's entire track history